Details From EGCC - Manchester
To MUHG - Frank Pais Intl
Flight Number -
Tags Decoded
Created
Modified
Stats Distance 3,926 nm / 7,271 km
Max Altitude 0 ft / 0 m
Waypoints 5
Social Downloads 1
Likes 0
Share VATSIM

Download

Looking for another format? Having issues loading an existing format? Contact us
Advertisement - Login to hide

Notes

Decoded

Route

EGCC NOKIN GTK ZIN MUHG

ID Type Via Altitude Latitude Longitude Leg Dist Tot Dist Heading (true) Name
O EGCC APT - 0 ft / 0 m 53.33197˚ -2.31066˚ - 0 nm - -
NOKIN FIX - 0 ft / 0 m 53.07667˚ -2.88278˚ 25 nm 25 nm 234° / 233° -
GTK VOR - 0 ft / 0 m 21.44067˚ -71.13436˚ 3605 nm 3631 nm 266° / 220° GRAND TURK VORTAC
ZIN NDB - 0 ft / 0 m 20.95972˚ -73.67750˚ 145 nm 3776 nm 259° / 258° GREAT INAGUA NDB
O MUHG APT - 0 ft / 0 m 20.77545˚ -76.32635˚ 149 nm 3925 nm 266° / 265° -

Altitude Profile

Advertisement - Login to hide

Weather


0- 5 10 15 20 25 30 35+ Temperature / ° C

Clouds and Precipitation
Forecast for 2017-12-17 12:00 UTC. Updated an hour ago

Ground ~20,000 ft ~40,000 ft Winds

EGCC

Details ICAO EGCC (MAN)
Name Manchester Intl
Region United Kingdom
Timezone Europe/London (UTC+0.0)
Stats Elevation 257 ft / 78 m (AMSL)
Location 53.347141° -2.283954°
Runways 2
Magnetic Variation 1.460° W

METAR

EGCC 170820Z AUTO 17005KT 130V220 9999 BKN039 OVC046 04/03 Q1020 NOSIG

Decode

TAF

TAF AMD EGCC 170639Z 1706/1812 18010KT 9999 FEW005 SCT045 BECMG 1707/1710 6000 PROB30 TEMPO 1707/1710 -RADZ BKN006 TEMPO 1710/1716 3000 RADZ BKN003 BECMG 1712/1715 26012KT PROB30 TEMPO 1714/1716 1400 BR BKN001 BECMG 1716/1719 32012KT 9999 BECMG 1800/1803 VRB03KT TEMPO 1802/1812 3000 BR BKN003 PROB30 1805/1812 0300 FG BKN001

Decode

Departure Runways

ID Width Length Bearing (true) Bearing (mag) Surface Threshold Offset Overrun Length
05L 151 ft / 46 m 9,981 ft / 3,042 m 50.99° 52.45° Asphalt 1,401 ft / 427 m 0 ft / 0 m
05R 151 ft / 46 m 9,952 ft / 3,033 m 50.97° 52.43° Asphalt 0 ft / 0 m 26 ft / 8 m
23L 151 ft / 46 m 9,952 ft / 3,033 m 231.00° 232.46° Asphalt 561 ft / 171 m 0 ft / 0 m
23R 151 ft / 46 m 9,981 ft / 3,042 m 231.02° 232.48° Asphalt 597 ft / 182 m 0 ft / 0 m

MUHG

Details ICAO MUHG (HOG)
Name FRANK PAIS INTL
Region Cuba
Timezone America/Havana (UTC-5.0)
Stats Elevation 361 ft / 110 m (AMSL)
Location 20.785554° -76.315108°
Runways 1
Magnetic Variation 8.246° W

METAR

MUHG 170750Z 03005KT 8000 VCFG FEW020 22/21 Q1018

Decode

TAF

Not found

Destination Runways

ID Width Length Bearing (true) Bearing (mag) Surface Threshold Offset Overrun Length
05 148 ft / 45 m 10,642 ft / 3,244 m 46.12° 54.37° Asphalt 328 ft / 100 m 290 ft / 88 m
23 148 ft / 45 m 10,642 ft / 3,244 m 226.12° 234.37° Asphalt 0 ft / 0 m 0 ft / 0 m

Approach Navaids

Runway Type Ident Frequency Range Bearing (true) Bearing (mag) Slope Elevation
05 Localiser IHG 111.30 MHz 18 nm / 33 km 46.13° 54.38° - 361 ft / 110 m (AMSL)
05 Glidescope IHG 111.30 MHz 10 nm / 19 km 46.12° 54.36° 3.00° 361 ft / 110 m (AMSL)

Popular Alternatives